sensor_id;sensor_type;location;lat;lon;timestamp;temperature;humidity
15596;DHT22;7898;48.658;9.068;2024-02-23T00:00:52;5.20;99.90
15596;DHT22;7898;48.658;9.068;2024-02-23T00:03:19;5.20;99.90
15596;DHT22;7898;48.658;9.068;2024-02-23T00:05:47;5.30;99.90
15596;DHT22;7898;48.658;9.068;2024-02-23T00:08:14;5.30;99.90
15596;DHT22;7898;48.658;9.068;2024-02-23T00:10:41;5.30;99.90
15596;DHT22;7898;48.658;9.068;2024-02-23T00:13:08;5.20;99.90
15596;DHT22;7898;48.658;9.068;2024-02-23T00:15:34;5.20;99.90
15596;DHT22;7898;48.658;9.068;2024-02-23T00:18:01;5.30;99.90
15596;DHT22;7898;48.658;9.068;2024-02-23T00:20:30;5.20;99.90
15596;DHT22;7898;48.658;9.068;2024-02-23T00:22:58;5.30;99.90
15596;DHT22;7898;48.658;9.068;2024-02-23T00:25:25;5.20;99.90
15596;DHT22;7898;48.658;9.068;2024-02-23T00:27:52;5.30;99.90
15596;DHT22;7898;48.658;9.068;2024-02-23T00:30:19;5.30;99.90
15596;DHT22;7898;48.658;9.068;2024-02-23T00:32:45;5.30;99.90
15596;DHT22;7898;48.658;9.068;2024-02-23T00:35:13;5.30;99.90
15596;DHT22;7898;48.658;9.068;2024-02-23T00:37:40;5.20;99.90
15596;DHT22;7898;48.658;9.068;2024-02-23T00:40:10;5.30;99.90
15596;DHT22;7898;48.658;9.068;2024-02-23T00:42:37;5.30;99.90
15596;DHT22;7898;48.658;9.068;2024-02-23T00:45:05;5.30;99.90
15596;DHT22;7898;48.658;9.068;2024-02-23T00:47:32;5.30;99.90
15596;DHT22;7898;48.658;9.068;2024-02-23T00:50:01;5.30;99.90
15596;DHT22;7898;48.658;9.068;2024-02-23T00:52:27;5.30;99.90
15596;DHT22;7898;48.658;9.068;2024-02-23T00:54:54;5.40;99.90
15596;DHT22;7898;48.658;9.068;2024-02-23T00:57:23;5.30;99.90
15596;DHT22;7898;48.658;9.068;2024-02-23T00:59:55;5.30;99.90
15596;DHT22;7898;48.658;9.068;2024-02-23T01:02:22;5.30;99.90
15596;DHT22;7898;48.658;9.068;2024-02-23T01:04:49;5.20;99.90
15596;DHT22;7898;48.658;9.068;2024-02-23T01:07:16;5.20;99.90
15596;DHT22;7898;48.658;9.068;2024-02-23T01:09:42;5.50;99.90
15596;DHT22;7898;48.658;9.068;2024-02-23T01:12:09;5.20;99.90
15596;DHT22;7898;48.658;9.068;2024-02-23T01:14:37;5.20;99.90
15596;DHT22;7898;48.658;9.068;2024-02-23T01:17:04;5.10;99.90
15596;DHT22;7898;48.658;9.068;2024-02-23T01:19:31;5.10;99.90
15596;DHT22;7898;48.658;9.068;2024-02-23T01:21:58;5.20;99.90
15596;DHT22;7898;48.658;9.068;2024-02-23T01:24:26;5.20;99.90
15596;DHT22;7898;48.658;9.068;2024-02-23T01:26:54;5.20;99.90
15596;DHT22;7898;48.658;9.068;2024-02-23T01:29:21;5.20;99.90
15596;DHT22;7898;48.658;9.068;2024-02-23T01:31:50;5.20;99.90
15596;DHT22;7898;48.658;9.068;2024-02-23T01:34:17;5.20;99.90
15596;DHT22;7898;48.658;9.068;2024-02-23T01:36:44;5.10;99.90
15596;DHT22;7898;48.658;9.068;2024-02-23T01:39:11;5.10;99.90
15596;DHT22;7898;48.658;9.068;2024-02-23T01:41:38;5.10;99.90
15596;DHT22;7898;48.658;9.068;2024-02-23T01:44:05;5.10;99.90
15596;DHT22;7898;48.658;9.068;2024-02-23T01:46:32;5.10;99.90
15596;DHT22;7898;48.658;9.068;2024-02-23T01:49:01;5.00;99.90
15596;DHT22;7898;48.658;9.068;2024-02-23T01:51:27;5.10;99.90
15596;DHT22;7898;48.658;9.068;2024-02-23T01:53:54;5.00;99.90
15596;DHT22;7898;48.658;9.068;2024-02-23T01:56:22;5.00;99.90
15596;DHT22;7898;48.658;9.068;2024-02-23T01:58:49;4.90;99.90
15596;DHT22;7898;48.658;9.068;2024-02-23T02:01:16;5.10;99.90
15596;DHT22;7898;48.658;9.068;2024-02-23T02:03:43;4.90;99.90
15596;DHT22;7898;48.658;9.068;2024-02-23T02:06:11;4.90;99.90
15596;DHT22;7898;48.658;9.068;2024-02-23T02:08:38;4.90;99.90
15596;DHT22;7898;48.658;9.068;2024-02-23T02:11:05;4.90;99.90
15596;DHT22;7898;48.658;9.068;2024-02-23T02:13:32;4.80;99.90
15596;DHT22;7898;48.658;9.068;2024-02-23T02:16:00;5.40;99.90
15596;DHT22;7898;48.658;9.068;2024-02-23T02:18:27;4.80;99.90
15596;DHT22;7898;48.658;9.068;2024-02-23T02:20:55;4.70;99.90
15596;DHT22;7898;48.658;9.068;2024-02-23T02:23:24;4.70;99.90
15596;DHT22;7898;48.658;9.068;2024-02-23T02:25:55;4.70;99.90
15596;DHT22;7898;48.658;9.068;2024-02-23T02:28:23;4.60;99.90
15596;DHT22;7898;48.658;9.068;2024-02-23T02:30:50;4.70;99.90
15596;DHT22;7898;48.658;9.068;2024-02-23T02:33:18;4.60;99.90
15596;DHT22;7898;48.658;9.068;2024-02-23T02:35:45;4.60;99.90
15596;DHT22;7898;48.658;9.068;2024-02-23T02:38:12;4.60;99.90
15596;DHT22;7898;48.658;9.068;2024-02-23T02:40:40;4.60;99.90
15596;DHT22;7898;48.658;9.068;2024-02-23T02:43:07;5.10;99.90
15596;DHT22;7898;48.658;9.068;2024-02-23T02:45:34;4.60;99.90
15596;DHT22;7898;48.658;9.068;2024-02-23T02:48:01;4.60;99.90
15596;DHT22;7898;48.658;9.068;2024-02-23T02:50:28;4.70;99.90
15596;DHT22;7898;48.658;9.068;2024-02-23T02:52:55;4.80;99.90
15596;DHT22;7898;48.658;9.068;2024-02-23T02:55:22;4.80;99.90
15596;DHT22;7898;48.658;9.068;2024-02-23T02:57:50;4.80;99.90
15596;DHT22;7898;48.658;9.068;2024-02-23T03:00:17;4.90;99.90
15596;DHT22;7898;48.658;9.068;2024-02-23T03:02:44;4.90;99.90
15596;DHT22;7898;48.658;9.068;2024-02-23T03:05:11;4.80;99.90
15596;DHT22;7898;48.658;9.068;2024-02-23T03:07:38;4.80;99.90
15596;DHT22;7898;48.658;9.068;2024-02-23T03:10:05;4.80;99.90
15596;DHT22;7898;48.658;9.068;2024-02-23T03:12:33;4.80;99.90
15596;DHT22;7898;48.658;9.068;2024-02-23T03:15:01;4.80;99.90
15596;DHT22;7898;48.658;9.068;2024-02-23T03:17:29;4.80;99.90
15596;DHT22;7898;48.658;9.068;2024-02-23T03:19:55;4.80;99.90
15596;DHT22;7898;48.658;9.068;2024-02-23T03:22:23;4.80;99.90
15596;DHT22;7898;48.658;9.068;2024-02-23T03:24:50;4.80;99.90
15596;DHT22;7898;48.658;9.068;2024-02-23T03:27:17;4.80;99.90
15596;DHT22;7898;48.658;9.068;2024-02-23T03:29:43;4.80;99.90
15596;DHT22;7898;48.658;9.068;2024-02-23T03:32:12;4.70;99.90
15596;DHT22;7898;48.658;9.068;2024-02-23T03:34:39;4.70;99.90
15596;DHT22;7898;48.658;9.068;2024-02-23T03:37:06;5.30;99.90
15596;DHT22;7898;48.658;9.068;2024-02-23T03:39:32;4.60;99.90
15596;DHT22;7898;48.658;9.068;2024-02-23T03:41:59;4.60;99.90
15596;DHT22;7898;48.658;9.068;2024-02-23T03:44:26;4.60;99.90
15596;DHT22;7898;48.658;9.068;2024-02-23T03:46:53;4.60;99.90
15596;DHT22;7898;48.658;9.068;2024-02-23T03:49:21;4.60;99.90
15596;DHT22;7898;48.658;9.068;2024-02-23T03:51:48;4.50;99.90
15596;DHT22;7898;48.658;9.068;2024-02-23T03:54:15;4.50;99.90
15596;DHT22;7898;48.658;9.068;2024-02-23T03:56:42;4.60;99.90
15596;DHT22;7898;48.658;9.068;2024-02-23T03:59:09;4.50;99.90
15596;DHT22;7898;48.658;9.068;2024-02-23T04:01:36;4.50;99.90
15596;DHT22;7898;48.658;9.068;2024-02-23T04:04:03;4.40;99.90
15596;DHT22;7898;48.658;9.068;2024-02-23T04:06:33;4.40;99.90
15596;DHT22;7898;48.658;9.068;2024-02-23T04:09:00;4.40;99.90
15596;DHT22;7898;48.658;9.068;2024-02-23T04:11:27;4.30;99.90
15596;DHT22;7898;48.658;9.068;2024-02-23T04:13:53;4.30;99.90
15596;DHT22;7898;48.658;9.068;2024-02-23T04:16:23;4.30;99.90
15596;DHT22;7898;48.658;9.068;2024-02-23T04:18:50;4.30;99.90
15596;DHT22;7898;48.658;9.068;2024-02-23T04:21:17;4.30;99.90
15596;DHT22;7898;48.658;9.068;2024-02-23T04:23:45;4.20;99.90
15596;DHT22;7898;48.658;9.068;2024-02-23T04:26:13;4.20;99.90
15596;DHT22;7898;48.658;9.068;2024-02-23T04:28:40;4.20;99.90
15596;DHT22;7898;48.658;9.068;2024-02-23T04:31:08;4.20;99.90
15596;DHT22;7898;48.658;9.068;2024-02-23T04:33:35;4.20;99.90
15596;DHT22;7898;48.658;9.068;2024-02-23T04:36:03;4.20;99.90
15596;DHT22;7898;48.658;9.068;2024-02-23T04:38:30;4.20;99.90
15596;DHT22;7898;48.658;9.068;2024-02-23T04:40:58;4.20;99.90
15596;DHT22;7898;48.658;9.068;2024-02-23T04:43:25;4.10;99.90
15596;DHT22;7898;48.658;9.068;2024-02-23T04:45:52;4.10;99.90
15596;DHT22;7898;48.658;9.068;2024-02-23T04:48:19;4.10;99.90
15596;DHT22;7898;48.658;9.068;2024-02-23T04:50:46;4.20;99.90
15596;DHT22;7898;48.658;9.068;2024-02-23T04:53:13;4.00;99.90
15596;DHT22;7898;48.658;9.068;2024-02-23T04:55:39;4.00;99.90
15596;DHT22;7898;48.658;9.068;2024-02-23T04:58:08;4.00;99.90
15596;DHT22;7898;48.658;9.068;2024-02-23T05:00:37;4.00;99.90
15596;DHT22;7898;48.658;9.068;2024-02-23T05:03:05;3.90;99.90
15596;DHT22;7898;48.658;9.068;2024-02-23T05:05:32;3.90;99.90
15596;DHT22;7898;48.658;9.068;2024-02-23T05:07:59;3.90;99.90
15596;DHT22;7898;48.658;9.068;2024-02-23T05:10:26;3.80;99.90
15596;DHT22;7898;48.658;9.068;2024-02-23T05:12:53;3.80;99.90
15596;DHT22;7898;48.658;9.068;2024-02-23T05:15:22;3.90;99.90
15596;DHT22;7898;48.658;9.068;2024-02-23T05:17:48;3.90;99.90
15596;DHT22;7898;48.658;9.068;2024-02-23T05:20:15;3.90;99.90
15596;DHT22;7898;48.658;9.068;2024-02-23T05:22:42;4.00;99.90
15596;DHT22;7898;48.658;9.068;2024-02-23T05:25:09;4.00;99.90
15596;DHT22;7898;48.658;9.068;2024-02-23T05:27:37;4.00;99.90
15596;DHT22;7898;48.658;9.068;2024-02-23T05:30:04;3.90;99.90
15596;DHT22;7898;48.658;9.068;2024-02-23T05:32:33;3.70;99.90
15596;DHT22;7898;48.658;9.068;2024-02-23T05:35:00;3.60;99.90
15596;DHT22;7898;48.658;9.068;2024-02-23T05:37:27;3.50;99.90
15596;DHT22;7898;48.658;9.068;2024-02-23T05:39:54;3.40;99.90
15596;DHT22;7898;48.658;9.068;2024-02-23T05:42:21;3.30;99.90
15596;DHT22;7898;48.658;9.068;2024-02-23T05:44:48;3.20;99.90
15596;DHT22;7898;48.658;9.068;2024-02-23T05:47:15;3.20;99.90
15596;DHT22;7898;48.658;9.068;2024-02-23T05:49:43;3.10;99.90
15596;DHT22;7898;48.658;9.068;2024-02-23T05:52:10;3.00;99.90
15596;DHT22;7898;48.658;9.068;2024-02-23T05:54:37;3.00;99.90
15596;DHT22;7898;48.658;9.068;2024-02-23T05:57:04;2.90;99.90
15596;DHT22;7898;48.658;9.068;2024-02-23T05:59:31;2.90;99.90
15596;DHT22;7898;48.658;9.068;2024-02-23T06:01:58;2.90;99.90
15596;DHT22;7898;48.658;9.068;2024-02-23T06:04:25;2.90;99.90
15596;DHT22;7898;48.658;9.068;2024-02-23T06:06:54;2.90;99.90
15596;DHT22;7898;48.658;9.068;2024-02-23T06:09:21;3.00;99.90
15596;DHT22;7898;48.658;9.068;2024-02-23T06:11:48;3.00;99.90
15596;DHT22;7898;48.658;9.068;2024-02-23T06:14:14;3.00;99.90
15596;DHT22;7898;48.658;9.068;2024-02-23T06:16:41;3.00;99.90
15596;DHT22;7898;48.658;9.068;2024-02-23T06:19:09;3.10;99.90
15596;DHT22;7898;48.658;9.068;2024-02-23T06:21:35;3.10;99.90
15596;DHT22;7898;48.658;9.068;2024-02-23T06:24:04;3.20;99.90
15596;DHT22;7898;48.658;9.068;2024-02-23T06:26:33;3.10;99.90
15596;DHT22;7898;48.658;9.068;2024-02-23T06:29:00;3.10;99.90
15596;DHT22;7898;48.658;9.068;2024-02-23T06:31:27;3.00;99.90
15596;DHT22;7898;48.658;9.068;2024-02-23T06:33:54;3.00;99.90
15596;DHT22;7898;48.658;9.068;2024-02-23T06:36:20;3.10;99.90
15596;DHT22;7898;48.658;9.068;2024-02-23T06:38:47;3.20;99.90
15596;DHT22;7898;48.658;9.068;2024-02-23T06:41:16;3.20;99.90
15596;DHT22;7898;48.658;9.068;2024-02-23T06:43:42;3.30;99.90
15596;DHT22;7898;48.658;9.068;2024-02-23T06:46:09;3.40;99.90
15596;DHT22;7898;48.658;9.068;2024-02-23T06:48:37;3.50;99.90
15596;DHT22;7898;48.658;9.068;2024-02-23T06:51:04;3.50;99.90
15596;DHT22;7898;48.658;9.068;2024-02-23T06:53:31;3.60;99.90
15596;DHT22;7898;48.658;9.068;2024-02-23T06:55:58;3.80;99.90
15596;DHT22;7898;48.658;9.068;2024-02-23T06:58:27;3.70;99.90
15596;DHT22;7898;48.658;9.068;2024-02-23T07:00:54;3.70;99.90
15596;DHT22;7898;48.658;9.068;2024-02-23T07:03:21;3.70;99.90
15596;DHT22;7898;48.658;9.068;2024-02-23T07:05:48;3.70;99.90
15596;DHT22;7898;48.658;9.068;2024-02-23T07:08:16;3.70;99.90
15596;DHT22;7898;48.658;9.068;2024-02-23T07:10:42;3.80;99.90
15596;DHT22;7898;48.658;9.068;2024-02-23T07:13:10;3.80;99.90
15596;DHT22;7898;48.658;9.068;2024-02-23T07:15:38;3.80;99.90
15596;DHT22;7898;48.658;9.068;2024-02-23T07:18:06;3.80;99.90
15596;DHT22;7898;48.658;9.068;2024-02-23T07:20:34;3.90;99.90
15596;DHT22;7898;48.658;9.068;2024-02-23T07:23:01;3.90;99.90
15596;DHT22;7898;48.658;9.068;2024-02-23T07:25:28;3.90;99.90
15596;DHT22;7898;48.658;9.068;2024-02-23T07:27:55;3.90;99.90
15596;DHT22;7898;48.658;9.068;2024-02-23T07:30:22;4.10;99.90
15596;DHT22;7898;48.658;9.068;2024-02-23T07:32:50;4.00;99.90
15596;DHT22;7898;48.658;9.068;2024-02-23T07:35:17;4.00;99.90
15596;DHT22;7898;48.658;9.068;2024-02-23T07:37:44;4.10;99.90
15596;DHT22;7898;48.658;9.068;2024-02-23T07:40:11;4.20;99.90
15596;DHT22;7898;48.658;9.068;2024-02-23T07:42:39;4.30;99.90
15596;DHT22;7898;48.658;9.068;2024-02-23T07:45:07;4.50;99.90
15596;DHT22;7898;48.658;9.068;2024-02-23T07:47:34;4.60;99.90
15596;DHT22;7898;48.658;9.068;2024-02-23T07:50:03;4.60;99.90
15596;DHT22;7898;48.658;9.068;2024-02-23T07:52:30;4.70;99.90
15596;DHT22;7898;48.658;9.068;2024-02-23T07:54:57;4.70;99.90
15596;DHT22;7898;48.658;9.068;2024-02-23T07:57:25;4.70;99.90
15596;DHT22;7898;48.658;9.068;2024-02-23T07:59:52;4.70;99.90
15596;DHT22;7898;48.658;9.068;2024-02-23T08:02:19;4.60;99.90
15596;DHT22;7898;48.658;9.068;2024-02-23T08:04:46;4.60;99.90
15596;DHT22;7898;48.658;9.068;2024-02-23T08:07:15;4.60;99.90
15596;DHT22;7898;48.658;9.068;2024-02-23T08:09:42;4.60;99.90
15596;DHT22;7898;48.658;9.068;2024-02-23T08:12:10;4.60;99.90
15596;DHT22;7898;48.658;9.068;2024-02-23T08:14:40;4.60;99.90
15596;DHT22;7898;48.658;9.068;2024-02-23T08:17:07;4.60;99.90
15596;DHT22;7898;48.658;9.068;2024-02-23T08:19:34;4.50;99.90
15596;DHT22;7898;48.658;9.068;2024-02-23T08:22:01;4.50;99.90
15596;DHT22;7898;48.658;9.068;2024-02-23T08:24:30;4.60;99.90
15596;DHT22;7898;48.658;9.068;2024-02-23T08:26:57;4.60;99.90
15596;DHT22;7898;48.658;9.068;2024-02-23T08:29:25;4.70;99.90
15596;DHT22;7898;48.658;9.068;2024-02-23T08:31:52;4.70;99.90
15596;DHT22;7898;48.658;9.068;2024-02-23T08:34:18;4.70;99.90
15596;DHT22;7898;48.658;9.068;2024-02-23T08:36:45;4.70;99.90
15596;DHT22;7898;48.658;9.068;2024-02-23T08:39:12;4.70;99.90
15596;DHT22;7898;48.658;9.068;2024-02-23T08:41:40;4.70;99.90
15596;DHT22;7898;48.658;9.068;2024-02-23T08:44:07;4.70;99.90
15596;DHT22;7898;48.658;9.068;2024-02-23T08:46:34;4.80;99.90
15596;DHT22;7898;48.658;9.068;2024-02-23T08:49:07;4.90;99.90
15596;DHT22;7898;48.658;9.068;2024-02-23T08:51:34;4.80;99.90
15596;DHT22;7898;48.658;9.068;2024-02-23T08:54:01;4.80;99.90
15596;DHT22;7898;48.658;9.068;2024-02-23T08:56:30;4.80;99.90
15596;DHT22;7898;48.658;9.068;2024-02-23T08:58:58;4.70;99.90
15596;DHT22;7898;48.658;9.068;2024-02-23T09:01:25;4.80;99.90
15596;DHT22;7898;48.658;9.068;2024-02-23T09:03:52;4.70;99.90
15596;DHT22;7898;48.658;9.068;2024-02-23T09:06:19;4.80;99.90
15596;DHT22;7898;48.658;9.068;2024-02-23T09:08:46;4.80;99.90
15596;DHT22;7898;48.658;9.068;2024-02-23T09:11:13;4.80;99.90
15596;DHT22;7898;48.658;9.068;2024-02-23T09:13:40;4.80;99.90
15596;DHT22;7898;48.658;9.068;2024-02-23T09:16:09;4.70;99.90
15596;DHT22;7898;48.658;9.068;2024-02-23T09:18:36;4.70;99.90
15596;DHT22;7898;48.658;9.068;2024-02-23T09:21:04;4.70;99.90
15596;DHT22;7898;48.658;9.068;2024-02-23T09:23:30;4.70;99.90
15596;DHT22;7898;48.658;9.068;2024-02-23T09:25:58;4.70;99.90
15596;DHT22;7898;48.658;9.068;2024-02-23T09:28:25;4.80;99.90
15596;DHT22;7898;48.658;9.068;2024-02-23T09:30:52;4.80;99.90
15596;DHT22;7898;48.658;9.068;2024-02-23T09:33:20;4.80;99.90
15596;DHT22;7898;48.658;9.068;2024-02-23T09:35:47;4.90;99.90
15596;DHT22;7898;48.658;9.068;2024-02-23T09:38:14;5.00;99.90
15596;DHT22;7898;48.658;9.068;2024-02-23T09:40:41;5.10;99.90
15596;DHT22;7898;48.658;9.068;2024-02-23T09:43:08;5.40;99.90
15596;DHT22;7898;48.658;9.068;2024-02-23T09:45:38;5.70;99.90
15596;DHT22;7898;48.658;9.068;2024-02-23T09:48:07;6.20;99.90
15596;DHT22;7898;48.658;9.068;2024-02-23T09:50:37;6.60;99.90
15596;DHT22;7898;48.658;9.068;2024-02-23T09:53:04;6.80;99.90
15596;DHT22;7898;48.658;9.068;2024-02-23T09:55:34;7.10;99.90
15596;DHT22;7898;48.658;9.068;2024-02-23T09:58:01;7.50;99.90
15596;DHT22;7898;48.658;9.068;2024-02-23T10:00:30;7.40;99.90
15596;DHT22;7898;48.658;9.068;2024-02-23T10:02:58;7.30;99.90
15596;DHT22;7898;48.658;9.068;2024-02-23T10:05:30;7.60;99.90
15596;DHT22;7898;48.658;9.068;2024-02-23T10:07:58;8.10;99.90
15596;DHT22;7898;48.658;9.068;2024-02-23T10:10:29;8.40;99.90
15596;DHT22;7898;48.658;9.068;2024-02-23T10:12:57;8.30;99.90
15596;DHT22;7898;48.658;9.068;2024-02-23T10:15:24;8.30;99.90
15596;DHT22;7898;48.658;9.068;2024-02-23T10:17:51;8.10;99.90
15596;DHT22;7898;48.658;9.068;2024-02-23T10:20:19;8.00;99.90
15596;DHT22;7898;48.658;9.068;2024-02-23T10:22:47;7.90;99.90
15596;DHT22;7898;48.658;9.068;2024-02-23T10:25:15;7.90;99.90
15596;DHT22;7898;48.658;9.068;2024-02-23T10:27:42;7.90;99.90
15596;DHT22;7898;48.658;9.068;2024-02-23T10:30:10;7.90;99.90
15596;DHT22;7898;48.658;9.068;2024-02-23T10:32:38;8.00;99.90
15596;DHT22;7898;48.658;9.068;2024-02-23T10:35:10;8.10;99.90
15596;DHT22;7898;48.658;9.068;2024-02-23T10:37:37;8.10;99.90
15596;DHT22;7898;48.658;9.068;2024-02-23T10:40:07;8.00;99.90
15596;DHT22;7898;48.658;9.068;2024-02-23T10:42:38;7.90;99.90
15596;DHT22;7898;48.658;9.068;2024-02-23T10:45:06;8.10;99.90
15596;DHT22;7898;48.658;9.068;2024-02-23T10:47:34;8.00;99.90
15596;DHT22;7898;48.658;9.068;2024-02-23T10:50:02;8.10;99.90
15596;DHT22;7898;48.658;9.068;2024-02-23T10:52:31;7.90;99.90
15596;DHT22;7898;48.658;9.068;2024-02-23T10:55:00;7.90;99.90
15596;DHT22;7898;48.658;9.068;2024-02-23T10:57:30;7.80;99.90
15596;DHT22;7898;48.658;9.068;2024-02-23T10:59:59;7.70;99.90
15596;DHT22;7898;48.658;9.068;2024-02-23T11:02:29;7.80;99.90
15596;DHT22;7898;48.658;9.068;2024-02-23T11:04:59;7.70;99.90
15596;DHT22;7898;48.658;9.068;2024-02-23T11:07:29;7.70;99.90
15596;DHT22;7898;48.658;9.068;2024-02-23T11:09:58;7.60;99.90
15596;DHT22;7898;48.658;9.068;2024-02-23T11:12:26;7.70;99.90
15596;DHT22;7898;48.658;9.068;2024-02-23T11:14:58;7.60;99.90
15596;DHT22;7898;48.658;9.068;2024-02-23T12:13:17;7.00;99.90
15596;DHT22;7898;48.658;9.068;2024-02-23T12:15:46;7.60;99.90
15596;DHT22;7898;48.658;9.068;2024-02-23T12:18:13;7.70;99.90
15596;DHT22;7898;48.658;9.068;2024-02-23T12:20:40;7.70;99.90
15596;DHT22;7898;48.658;9.068;2024-02-23T12:23:07;7.60;99.90
15596;DHT22;7898;48.658;9.068;2024-02-23T12:25:35;7.40;99.90
15596;DHT22;7898;48.658;9.068;2024-02-23T12:28:03;7.40;99.90
15596;DHT22;7898;48.658;9.068;2024-02-23T12:30:31;7.30;99.90
15596;DHT22;7898;48.658;9.068;2024-02-23T12:33:05;7.40;99.90
15596;DHT22;7898;48.658;9.068;2024-02-23T12:35:36;7.50;99.90
15596;DHT22;7898;48.658;9.068;2024-02-23T12:38:03;7.50;99.90
15596;DHT22;7898;48.658;9.068;2024-02-23T12:40:30;7.40;99.90
15596;DHT22;7898;48.658;9.068;2024-02-23T12:43:03;7.40;99.90
15596;DHT22;7898;48.658;9.068;2024-02-23T12:45:31;7.40;99.90
15596;DHT22;7898;48.658;9.068;2024-02-23T12:47:58;7.20;99.90
15596;DHT22;7898;48.658;9.068;2024-02-23T12:50:25;7.20;99.90
15596;DHT22;7898;48.658;9.068;2024-02-23T12:52:52;6.20;99.90
15596;DHT22;7898;48.658;9.068;2024-02-23T12:55:19;7.10;99.90
15596;DHT22;7898;48.658;9.068;2024-02-23T12:57:45;7.00;99.90
15596;DHT22;7898;48.658;9.068;2024-02-23T13:00:14;7.10;99.90
15596;DHT22;7898;48.658;9.068;2024-02-23T13:02:42;7.10;99.90
15596;DHT22;7898;48.658;9.068;2024-02-23T13:05:09;7.20;99.90
15596;DHT22;7898;48.658;9.068;2024-02-23T13:07:36;7.30;99.90
15596;DHT22;7898;48.658;9.068;2024-02-23T13:10:04;7.40;99.90
15596;DHT22;7898;48.658;9.068;2024-02-23T13:12:32;7.40;99.90
15596;DHT22;7898;48.658;9.068;2024-02-23T13:15:02;7.40;99.90
15596;DHT22;7898;48.658;9.068;2024-02-23T13:17:29;7.40;99.90
15596;DHT22;7898;48.658;9.068;2024-02-23T13:19:57;7.50;99.90
15596;DHT22;7898;48.658;9.068;2024-02-23T13:22:24;7.50;99.90
15596;DHT22;7898;48.658;9.068;2024-02-23T13:24:51;7.60;99.90
15596;DHT22;7898;48.658;9.068;2024-02-23T13:27:17;7.60;99.90
15596;DHT22;7898;48.658;9.068;2024-02-23T13:29:44;7.60;99.90
15596;DHT22;7898;48.658;9.068;2024-02-23T13:32:11;7.60;99.90
15596;DHT22;7898;48.658;9.068;2024-02-23T13:34:38;7.60;99.90
15596;DHT22;7898;48.658;9.068;2024-02-23T13:37:06;7.60;99.90
15596;DHT22;7898;48.658;9.068;2024-02-23T13:39:33;7.70;99.90
15596;DHT22;7898;48.658;9.068;2024-02-23T13:42:00;7.80;99.90
15596;DHT22;7898;48.658;9.068;2024-02-23T13:44:27;7.80;99.90
15596;DHT22;7898;48.658;9.068;2024-02-23T13:46:54;7.80;99.90
15596;DHT22;7898;48.658;9.068;2024-02-23T13:49:21;7.80;99.90
15596;DHT22;7898;48.658;9.068;2024-02-23T13:51:49;7.80;99.90
15596;DHT22;7898;48.658;9.068;2024-02-23T13:54:17;7.90;99.90
15596;DHT22;7898;48.658;9.068;2024-02-23T13:56:44;7.90;99.90
15596;DHT22;7898;48.658;9.068;2024-02-23T13:59:11;8.00;99.90
15596;DHT22;7898;48.658;9.068;2024-02-23T14:01:37;8.10;99.90
15596;DHT22;7898;48.658;9.068;2024-02-23T14:04:06;8.30;99.90
15596;DHT22;7898;48.658;9.068;2024-02-23T14:06:33;8.50;99.90
15596;DHT22;7898;48.658;9.068;2024-02-23T14:09:00;8.60;99.90
15596;DHT22;7898;48.658;9.068;2024-02-23T14:11:30;8.70;99.90
15596;DHT22;7898;48.658;9.068;2024-02-23T14:13:58;8.70;99.90
15596;DHT22;7898;48.658;9.068;2024-02-23T14:16:25;8.60;99.90
15596;DHT22;7898;48.658;9.068;2024-02-23T14:18:52;8.50;99.90
15596;DHT22;7898;48.658;9.068;2024-02-23T14:21:18;8.90;99.90
15596;DHT22;7898;48.658;9.068;2024-02-23T14:23:46;8.90;99.90
15596;DHT22;7898;48.658;9.068;2024-02-23T14:26:13;9.00;99.90
15596;DHT22;7898;48.658;9.068;2024-02-23T14:28:42;8.90;99.90
15596;DHT22;7898;48.658;9.068;2024-02-23T14:31:09;8.80;99.90
15596;DHT22;7898;48.658;9.068;2024-02-23T14:33:36;8.50;99.90
15596;DHT22;7898;48.658;9.068;2024-02-23T14:36:03;8.30;99.90
15596;DHT22;7898;48.658;9.068;2024-02-23T14:38:30;8.10;99.90
15596;DHT22;7898;48.658;9.068;2024-02-23T14:40:57;8.00;99.90
15596;DHT22;7898;48.658;9.068;2024-02-23T14:43:24;7.90;99.90
15596;DHT22;7898;48.658;9.068;2024-02-23T14:45:52;7.80;99.90
15596;DHT22;7898;48.658;9.068;2024-02-23T14:48:19;8.00;99.90
15596;DHT22;7898;48.658;9.068;2024-02-23T14:50:46;7.70;99.90
15596;DHT22;7898;48.658;9.068;2024-02-23T14:53:14;7.70;99.90
15596;DHT22;7898;48.658;9.068;2024-02-23T14:55:43;7.70;99.90
15596;DHT22;7898;48.658;9.068;2024-02-23T14:58:10;7.70;99.90
15596;DHT22;7898;48.658;9.068;2024-02-23T15:00:37;7.70;99.90
15596;DHT22;7898;48.658;9.068;2024-02-23T15:03:05;7.60;99.90
15596;DHT22;7898;48.658;9.068;2024-02-23T15:05:34;7.60;99.90
15596;DHT22;7898;48.658;9.068;2024-02-23T15:08:01;7.70;99.90
15596;DHT22;7898;48.658;9.068;2024-02-23T15:10:28;7.70;99.90
15596;DHT22;7898;48.658;9.068;2024-02-23T15:12:55;7.70;99.90
15596;DHT22;7898;48.658;9.068;2024-02-23T15:15:22;7.70;99.90
15596;DHT22;7898;48.658;9.068;2024-02-23T15:17:49;7.70;99.90
15596;DHT22;7898;48.658;9.068;2024-02-23T15:20:17;7.60;99.90
15596;DHT22;7898;48.658;9.068;2024-02-23T15:22:45;7.60;99.90
15596;DHT22;7898;48.658;9.068;2024-02-23T15:25:12;7.90;99.90
15596;DHT22;7898;48.658;9.068;2024-02-23T15:27:40;7.60;99.90
15596;DHT22;7898;48.658;9.068;2024-02-23T15:30:08;7.70;99.90
15596;DHT22;7898;48.658;9.068;2024-02-23T15:32:35;7.70;99.90
15596;DHT22;7898;48.658;9.068;2024-02-23T15:35:03;7.60;99.90
15596;DHT22;7898;48.658;9.068;2024-02-23T15:37:31;7.60;99.90
15596;DHT22;7898;48.658;9.068;2024-02-23T15:39:58;7.50;99.90
15596;DHT22;7898;48.658;9.068;2024-02-23T15:42:25;7.50;99.90
15596;DHT22;7898;48.658;9.068;2024-02-23T15:44:52;7.50;99.90
15596;DHT22;7898;48.658;9.068;2024-02-23T15:47:19;7.50;99.90
15596;DHT22;7898;48.658;9.068;2024-02-23T15:49:47;7.50;99.90
15596;DHT22;7898;48.658;9.068;2024-02-23T15:52:13;7.20;99.90
15596;DHT22;7898;48.658;9.068;2024-02-23T15:54:42;7.40;99.90
15596;DHT22;7898;48.658;9.068;2024-02-23T15:57:09;7.40;99.90
15596;DHT22;7898;48.658;9.068;2024-02-23T15:59:36;7.40;99.90
15596;DHT22;7898;48.658;9.068;2024-02-23T16:02:04;7.30;99.90
15596;DHT22;7898;48.658;9.068;2024-02-23T16:04:32;7.30;99.90
15596;DHT22;7898;48.658;9.068;2024-02-23T16:06:59;7.30;99.90
15596;DHT22;7898;48.658;9.068;2024-02-23T16:09:26;7.30;99.90
15596;DHT22;7898;48.658;9.068;2024-02-23T16:11:54;7.30;99.90
15596;DHT22;7898;48.658;9.068;2024-02-23T16:14:21;7.30;99.90
15596;DHT22;7898;48.658;9.068;2024-02-23T16:16:48;7.30;99.90
15596;DHT22;7898;48.658;9.068;2024-02-23T16:19:16;7.40;99.90
15596;DHT22;7898;48.658;9.068;2024-02-23T16:21:44;7.60;99.90
15596;DHT22;7898;48.658;9.068;2024-02-23T16:24:11;7.50;99.90
15596;DHT22;7898;48.658;9.068;2024-02-23T16:26:38;7.50;99.90
15596;DHT22;7898;48.658;9.068;2024-02-23T16:29:07;7.50;99.90
15596;DHT22;7898;48.658;9.068;2024-02-23T16:31:35;7.40;99.90
15596;DHT22;7898;48.658;9.068;2024-02-23T16:34:02;7.30;99.90
15596;DHT22;7898;48.658;9.068;2024-02-23T16:36:29;7.40;99.90
15596;DHT22;7898;48.658;9.068;2024-02-23T16:38:56;7.20;99.90
15596;DHT22;7898;48.658;9.068;2024-02-23T16:41:23;7.20;99.90
15596;DHT22;7898;48.658;9.068;2024-02-23T16:43:50;7.30;99.90
15596;DHT22;7898;48.658;9.068;2024-02-23T16:46:18;7.30;99.90
15596;DHT22;7898;48.658;9.068;2024-02-23T16:48:45;7.30;99.90
15596;DHT22;7898;48.658;9.068;2024-02-23T16:51:12;7.30;99.90
15596;DHT22;7898;48.658;9.068;2024-02-23T16:53:39;6.50;99.90
15596;DHT22;7898;48.658;9.068;2024-02-23T16:56:06;7.20;99.90
15596;DHT22;7898;48.658;9.068;2024-02-23T16:58:33;7.20;99.90